sensor_id;sensor_type;location;lat;lon;timestamp;temperature;humidity
38784;DHT22;24531;45.502;12.238;2023-04-10T00:01:34;14.20;71.90
38784;DHT22;24531;45.502;12.238;2023-04-10T00:04:01;14.20;72.10
38784;DHT22;24531;45.502;12.238;2023-04-10T00:06:27;14.20;72.40
38784;DHT22;24531;45.502;12.238;2023-04-10T00:08:53;14.20;72.70
38784;DHT22;24531;45.502;12.238;2023-04-10T00:11:19;14.20;72.90
38784;DHT22;24531;45.502;12.238;2023-04-10T00:13:44;14.10;72.90
38784;DHT22;24531;45.502;12.238;2023-04-10T00:16:10;14.10;73.00
38784;DHT22;24531;45.502;12.238;2023-04-10T00:18:36;14.00;73.30
38784;DHT22;24531;45.502;12.238;2023-04-10T00:21:02;13.90;73.40
38784;DHT22;24531;45.502;12.238;2023-04-10T00:23:28;13.90;73.60
38784;DHT22;24531;45.502;12.238;2023-04-10T00:25:56;13.90;73.80
38784;DHT22;24531;45.502;12.238;2023-04-10T00:28:21;13.80;74.00
38784;DHT22;24531;45.502;12.238;2023-04-10T00:30:47;13.80;74.20
38784;DHT22;24531;45.502;12.238;2023-04-10T00:33:13;13.80;74.40
38784;DHT22;24531;45.502;12.238;2023-04-10T00:35:38;13.80;74.50
38784;DHT22;24531;45.502;12.238;2023-04-10T00:38:04;13.80;74.70
38784;DHT22;24531;45.502;12.238;2023-04-10T00:40:30;13.70;74.70
38784;DHT22;24531;45.502;12.238;2023-04-10T00:42:56;13.80;74.80
38784;DHT22;24531;45.502;12.238;2023-04-10T00:45:22;13.80;74.70
38784;DHT22;24531;45.502;12.238;2023-04-10T00:47:47;13.80;74.60
38784;DHT22;24531;45.502;12.238;2023-04-10T00:50:13;13.80;74.60
38784;DHT22;24531;45.502;12.238;2023-04-10T00:52:39;13.60;74.60
38784;DHT22;24531;45.502;12.238;2023-04-10T00:55:05;13.70;74.60
38784;DHT22;24531;45.502;12.238;2023-04-10T00:57:32;13.70;74.50
38784;DHT22;24531;45.502;12.238;2023-04-10T00:59:58;13.60;74.50
38784;DHT22;24531;45.502;12.238;2023-04-10T01:02:24;13.60;74.70
38784;DHT22;24531;45.502;12.238;2023-04-10T01:04:50;13.60;74.70
38784;DHT22;24531;45.502;12.238;2023-04-10T01:07:28;13.50;74.70
38784;DHT22;24531;45.502;12.238;2023-04-10T01:13:04;13.50;74.80
38784;DHT22;24531;45.502;12.238;2023-04-10T01:15:37;13.40;74.60
38784;DHT22;24531;45.502;12.238;2023-04-10T01:18:15;13.40;74.40
38784;DHT22;24531;45.502;12.238;2023-04-10T01:20:43;13.40;74.50
38784;DHT22;24531;45.502;12.238;2023-04-10T01:26:06;13.30;74.50
38784;DHT22;24531;45.502;12.238;2023-04-10T01:31:36;13.20;74.30
38784;DHT22;24531;45.502;12.238;2023-04-10T01:34:27;13.20;74.20
38784;DHT22;24531;45.502;12.238;2023-04-10T01:37:01;13.10;74.30
38784;DHT22;24531;45.502;12.238;2023-04-10T01:39:28;13.10;75.00
38784;DHT22;24531;45.502;12.238;2023-04-10T01:41:56;13.10;74.20
38784;DHT22;24531;45.502;12.238;2023-04-10T01:44:26;13.10;74.00
38784;DHT22;24531;45.502;12.238;2023-04-10T01:46:54;13.00;74.10
38784;DHT22;24531;45.502;12.238;2023-04-10T01:49:22;12.90;74.10
38784;DHT22;24531;45.502;12.238;2023-04-10T01:51:50;12.90;74.30
38784;DHT22;24531;45.502;12.238;2023-04-10T01:54:16;12.90;75.20
38784;DHT22;24531;45.502;12.238;2023-04-10T01:56:42;12.80;74.30
38784;DHT22;24531;45.502;12.238;2023-04-10T01:59:08;12.80;74.50
38784;DHT22;24531;45.502;12.238;2023-04-10T02:01:34;12.80;74.50
38784;DHT22;24531;45.502;12.238;2023-04-10T02:04:00;12.80;74.50
38784;DHT22;24531;45.502;12.238;2023-04-10T02:09:01;12.80;74.50
38784;DHT22;24531;45.502;12.238;2023-04-10T02:11:55;12.80;74.50
38784;DHT22;24531;45.502;12.238;2023-04-10T02:14:24;12.70;74.50
38784;DHT22;24531;45.502;12.238;2023-04-10T02:16:54;12.70;74.40
38784;DHT22;24531;45.502;12.238;2023-04-10T02:19:21;12.70;74.50
38784;DHT22;24531;45.502;12.238;2023-04-10T02:21:49;12.70;74.50
38784;DHT22;24531;45.502;12.238;2023-04-10T02:24:15;12.70;74.60
38784;DHT22;24531;45.502;12.238;2023-04-10T02:26:50;12.70;74.60
38784;DHT22;24531;45.502;12.238;2023-04-10T02:29:16;12.70;74.70
38784;DHT22;24531;45.502;12.238;2023-04-10T02:31:42;12.70;74.60
38784;DHT22;24531;45.502;12.238;2023-04-10T02:34:08;12.70;74.70
38784;DHT22;24531;45.502;12.238;2023-04-10T02:36:36;12.70;74.70
38784;DHT22;24531;45.502;12.238;2023-04-10T02:39:03;12.60;74.60
38784;DHT22;24531;45.502;12.238;2023-04-10T02:41:29;12.60;74.60
38784;DHT22;24531;45.502;12.238;2023-04-10T02:43:54;12.60;74.60
38784;DHT22;24531;45.502;12.238;2023-04-10T02:46:20;12.60;74.60
38784;DHT22;24531;45.502;12.238;2023-04-10T02:48:46;12.60;74.70
38784;DHT22;24531;45.502;12.238;2023-04-10T02:51:12;12.50;75.40
38784;DHT22;24531;45.502;12.238;2023-04-10T02:53:37;12.50;74.60
38784;DHT22;24531;45.502;12.238;2023-04-10T02:56:03;12.50;74.70
38784;DHT22;24531;45.502;12.238;2023-04-10T02:58:32;12.50;74.80
38784;DHT22;24531;45.502;12.238;2023-04-10T03:00:58;12.50;74.70
38784;DHT22;24531;45.502;12.238;2023-04-10T03:03:24;12.50;74.70
38784;DHT22;24531;45.502;12.238;2023-04-10T03:05:49;12.40;74.70
38784;DHT22;24531;45.502;12.238;2023-04-10T03:08:15;12.40;74.80
38784;DHT22;24531;45.502;12.238;2023-04-10T03:10:45;12.40;74.80
38784;DHT22;24531;45.502;12.238;2023-04-10T03:13:13;12.30;74.70
38784;DHT22;24531;45.502;12.238;2023-04-10T03:15:39;12.20;74.60
38784;DHT22;24531;45.502;12.238;2023-04-10T03:18:05;12.20;74.60
38784;DHT22;24531;45.502;12.238;2023-04-10T03:20:35;12.20;74.60
38784;DHT22;24531;45.502;12.238;2023-04-10T03:23:01;12.10;74.50
38784;DHT22;24531;45.502;12.238;2023-04-10T03:25:27;12.00;74.50
38784;DHT22;24531;45.502;12.238;2023-04-10T03:27:53;12.00;74.50
38784;DHT22;24531;45.502;12.238;2023-04-10T03:30:19;12.00;74.60
38784;DHT22;24531;45.502;12.238;2023-04-10T03:32:45;11.90;74.70
38784;DHT22;24531;45.502;12.238;2023-04-10T03:35:10;11.90;74.70
38784;DHT22;24531;45.502;12.238;2023-04-10T03:37:36;11.90;75.50
38784;DHT22;24531;45.502;12.238;2023-04-10T03:40:07;11.90;74.80
38784;DHT22;24531;45.502;12.238;2023-04-10T03:42:33;11.90;74.80
38784;DHT22;24531;45.502;12.238;2023-04-10T03:44:59;11.90;74.70
38784;DHT22;24531;45.502;12.238;2023-04-10T03:47:26;11.90;74.70
38784;DHT22;24531;45.502;12.238;2023-04-10T03:49:52;11.90;74.60
38784;DHT22;24531;45.502;12.238;2023-04-10T03:52:18;12.00;74.60
38784;DHT22;24531;45.502;12.238;2023-04-10T03:54:43;12.00;74.70
38784;DHT22;24531;45.502;12.238;2023-04-10T03:57:09;12.00;74.50
38784;DHT22;24531;45.502;12.238;2023-04-10T03:59:35;12.00;74.70
38784;DHT22;24531;45.502;12.238;2023-04-10T04:02:00;12.10;75.30
38784;DHT22;24531;45.502;12.238;2023-04-10T04:04:26;12.10;75.10
38784;DHT22;24531;45.502;12.238;2023-04-10T04:06:52;12.10;74.80
38784;DHT22;24531;45.502;12.238;2023-04-10T04:09:18;12.00;75.30
38784;DHT22;24531;45.502;12.238;2023-04-10T04:14:09;11.90;84.60
38784;DHT22;24531;45.502;12.238;2023-04-10T04:16:35;11.90;75.10
38784;DHT22;24531;45.502;12.238;2023-04-10T04:19:01;12.00;75.10
38784;DHT22;24531;45.502;12.238;2023-04-10T04:21:26;12.00;74.80
38784;DHT22;24531;45.502;12.238;2023-04-10T04:23:52;12.00;75.80
38784;DHT22;24531;45.502;12.238;2023-04-10T04:26:18;12.00;75.00
38784;DHT22;24531;45.502;12.238;2023-04-10T04:28:43;11.60;76.50
38784;DHT22;24531;45.502;12.238;2023-04-10T04:31:09;12.00;76.20
38784;DHT22;24531;45.502;12.238;2023-04-10T04:33:34;11.90;74.80
38784;DHT22;24531;45.502;12.238;2023-04-10T04:36:00;11.90;74.80
38784;DHT22;24531;45.502;12.238;2023-04-10T04:38:28;11.80;75.10
38784;DHT22;24531;45.502;12.238;2023-04-10T04:40:54;11.70;74.60
38784;DHT22;24531;45.502;12.238;2023-04-10T04:43:20;11.80;75.10
38784;DHT22;24531;45.502;12.238;2023-04-10T04:45:45;11.80;75.40
38784;DHT22;24531;45.502;12.238;2023-04-10T04:48:11;11.80;75.50
38784;DHT22;24531;45.502;12.238;2023-04-10T04:50:39;11.70;75.20
38784;DHT22;24531;45.502;12.238;2023-04-10T04:53:05;11.70;75.50
38784;DHT22;24531;45.502;12.238;2023-04-10T04:55:30;11.70;75.90
38784;DHT22;24531;45.502;12.238;2023-04-10T04:57:56;11.70;75.80
38784;DHT22;24531;45.502;12.238;2023-04-10T05:00:22;11.70;76.00
38784;DHT22;24531;45.502;12.238;2023-04-10T05:02:47;11.70;75.90
38784;DHT22;24531;45.502;12.238;2023-04-10T05:05:13;11.70;75.60
38784;DHT22;24531;45.502;12.238;2023-04-10T05:07:38;11.50;76.00
38784;DHT22;24531;45.502;12.238;2023-04-10T05:10:05;11.40;75.80
38784;DHT22;24531;45.502;12.238;2023-04-10T05:12:31;11.40;76.30
38784;DHT22;24531;45.502;12.238;2023-04-10T05:14:56;11.30;76.40
38784;DHT22;24531;45.502;12.238;2023-04-10T05:17:22;11.30;76.50
38784;DHT22;24531;45.502;12.238;2023-04-10T05:19:47;11.20;76.50
38784;DHT22;24531;45.502;12.238;2023-04-10T05:22:15;11.30;76.80
38784;DHT22;24531;45.502;12.238;2023-04-10T05:24:44;11.30;76.70
38784;DHT22;24531;45.502;12.238;2023-04-10T05:27:10;11.40;77.20
38784;DHT22;24531;45.502;12.238;2023-04-10T05:29:35;11.60;77.00
38784;DHT22;24531;45.502;12.238;2023-04-10T05:32:01;12.40;77.10
38784;DHT22;24531;45.502;12.238;2023-04-10T05:34:27;11.90;76.60
38784;DHT22;24531;45.502;12.238;2023-04-10T05:36:52;12.10;76.40
38784;DHT22;24531;45.502;12.238;2023-04-10T05:39:18;12.20;76.20
38784;DHT22;24531;45.502;12.238;2023-04-10T05:41:43;12.30;75.90
38784;DHT22;24531;45.502;12.238;2023-04-10T05:44:09;12.40;75.50
38784;DHT22;24531;45.502;12.238;2023-04-10T05:46:34;12.50;75.40
38784;DHT22;24531;45.502;12.238;2023-04-10T05:49:00;12.60;75.20
38784;DHT22;24531;45.502;12.238;2023-04-10T05:51:26;12.70;75.00
38784;DHT22;24531;45.502;12.238;2023-04-10T05:53:53;12.80;75.30
38784;DHT22;24531;45.502;12.238;2023-04-10T05:56:18;12.90;74.80
38784;DHT22;24531;45.502;12.238;2023-04-10T05:58:45;13.00;74.50
38784;DHT22;24531;45.502;12.238;2023-04-10T06:01:11;13.10;74.30
38784;DHT22;24531;45.502;12.238;2023-04-10T06:03:37;13.30;74.10
38784;DHT22;24531;45.502;12.238;2023-04-10T06:06:03;10.60;72.30
38784;DHT22;24531;45.502;12.238;2023-04-10T06:08:30;13.40;74.40
38784;DHT22;24531;45.502;12.238;2023-04-10T06:10:55;13.60;76.10
38784;DHT22;24531;45.502;12.238;2023-04-10T06:13:21;14.10;74.70
38784;DHT22;24531;45.502;12.238;2023-04-10T06:15:47;14.20;74.10
38784;DHT22;24531;45.502;12.238;2023-04-10T06:18:12;14.20;73.90
38784;DHT22;24531;45.502;12.238;2023-04-10T06:20:38;14.30;73.50
38784;DHT22;24531;45.502;12.238;2023-04-10T06:23:04;14.40;73.40
38784;DHT22;24531;45.502;12.238;2023-04-10T06:25:30;14.70;73.10
38784;DHT22;24531;45.502;12.238;2023-04-10T06:27:56;15.00;72.70
38784;DHT22;24531;45.502;12.238;2023-04-10T06:30:21;15.40;72.50
38784;DHT22;24531;45.502;12.238;2023-04-10T06:32:47;15.60;72.10
38784;DHT22;24531;45.502;12.238;2023-04-10T06:35:13;15.80;71.50
38784;DHT22;24531;45.502;12.238;2023-04-10T06:37:38;15.90;71.30
38784;DHT22;24531;45.502;12.238;2023-04-10T06:40:06;16.00;71.00
38784;DHT22;24531;45.502;12.238;2023-04-10T06:42:32;15.90;70.50
38784;DHT22;24531;45.502;12.238;2023-04-10T06:44:58;16.00;70.70
38784;DHT22;24531;45.502;12.238;2023-04-10T06:47:27;15.90;69.80
38784;DHT22;24531;45.502;12.238;2023-04-10T06:49:52;15.90;69.70
38784;DHT22;24531;45.502;12.238;2023-04-10T06:52:18;16.00;69.50
38784;DHT22;24531;45.502;12.238;2023-04-10T06:54:46;16.10;69.50
38784;DHT22;24531;45.502;12.238;2023-04-10T06:57:12;16.20;69.80
38784;DHT22;24531;45.502;12.238;2023-04-10T06:59:39;16.30;68.70
38784;DHT22;24531;45.502;12.238;2023-04-10T07:02:04;16.40;68.30
38784;DHT22;24531;45.502;12.238;2023-04-10T07:04:30;16.50;67.80
38784;DHT22;24531;45.502;12.238;2023-04-10T07:06:56;16.60;67.90
38784;DHT22;24531;45.502;12.238;2023-04-10T07:09:27;16.70;67.10
38784;DHT22;24531;45.502;12.238;2023-04-10T07:11:53;16.80;67.00
38784;DHT22;24531;45.502;12.238;2023-04-10T07:14:19;17.00;67.00
38784;DHT22;24531;45.502;12.238;2023-04-10T07:16:44;17.10;66.30
38784;DHT22;24531;45.502;12.238;2023-04-10T07:19:10;17.20;66.20
38784;DHT22;24531;45.502;12.238;2023-04-10T07:21:36;17.20;65.80
38784;DHT22;24531;45.502;12.238;2023-04-10T07:24:01;17.20;66.20
38784;DHT22;24531;45.502;12.238;2023-04-10T07:26:27;17.40;65.00
38784;DHT22;24531;45.502;12.238;2023-04-10T07:28:52;17.50;64.70
38784;DHT22;24531;45.502;12.238;2023-04-10T07:31:18;17.60;64.60
38784;DHT22;24531;45.502;12.238;2023-04-10T07:33:44;17.70;63.50
38784;DHT22;24531;45.502;12.238;2023-04-10T07:36:11;17.80;63.40
38784;DHT22;24531;45.502;12.238;2023-04-10T07:38:37;17.90;63.10
38784;DHT22;24531;45.502;12.238;2023-04-10T07:41:03;18.00;62.80
38784;DHT22;24531;45.502;12.238;2023-04-10T07:43:29;18.20;62.80
38784;DHT22;24531;45.502;12.238;2023-04-10T07:45:55;18.50;62.70
38784;DHT22;24531;45.502;12.238;2023-04-10T07:48:21;18.70;62.40
38784;DHT22;24531;45.502;12.238;2023-04-10T07:50:46;19.00;61.80
38784;DHT22;24531;45.502;12.238;2023-04-10T07:53:12;19.40;61.60
38784;DHT22;24531;45.502;12.238;2023-04-10T07:55:42;19.90;61.40
38784;DHT22;24531;45.502;12.238;2023-04-10T07:58:08;20.30;59.30
38784;DHT22;24531;45.502;12.238;2023-04-10T08:00:34;20.40;58.70
38784;DHT22;24531;45.502;12.238;2023-04-10T08:03:00;20.90;58.50
38784;DHT22;24531;45.502;12.238;2023-04-10T08:05:26;21.40;58.30
38784;DHT22;24531;45.502;12.238;2023-04-10T08:07:52;21.80;56.90
38784;DHT22;24531;45.502;12.238;2023-04-10T08:10:18;23.40;56.60
38784;DHT22;24531;45.502;12.238;2023-04-10T08:12:43;23.10;55.10
38784;DHT22;24531;45.502;12.238;2023-04-10T08:15:09;23.60;54.30
38784;DHT22;24531;45.502;12.238;2023-04-10T08:17:35;24.00;53.70
38784;DHT22;24531;45.502;12.238;2023-04-10T08:20:01;24.50;52.90
38784;DHT22;24531;45.502;12.238;2023-04-10T08:22:26;25.10;52.30
38784;DHT22;24531;45.502;12.238;2023-04-10T08:24:52;25.70;51.90
38784;DHT22;24531;45.502;12.238;2023-04-10T08:27:18;26.10;51.20
38784;DHT22;24531;45.502;12.238;2023-04-10T08:29:43;26.50;50.90
38784;DHT22;24531;45.502;12.238;2023-04-10T08:32:09;26.80;50.30
38784;DHT22;24531;45.502;12.238;2023-04-10T08:34:34;27.10;49.70
38784;DHT22;24531;45.502;12.238;2023-04-10T08:37:04;27.40;49.60
38784;DHT22;24531;45.502;12.238;2023-04-10T08:39:30;27.60;48.60
38784;DHT22;24531;45.502;12.238;2023-04-10T08:41:59;27.90;48.40
38784;DHT22;24531;45.502;12.238;2023-04-10T08:44:25;28.20;48.20
38784;DHT22;24531;45.502;12.238;2023-04-10T08:46:51;28.40;47.70
38784;DHT22;24531;45.502;12.238;2023-04-10T08:49:25;28.50;47.00
38784;DHT22;24531;45.502;12.238;2023-04-10T08:51:56;29.00;46.80
38784;DHT22;24531;45.502;12.238;2023-04-10T08:54:27;29.50;46.50
38784;DHT22;24531;45.502;12.238;2023-04-10T08:56:54;29.90;45.90
38784;DHT22;24531;45.502;12.238;2023-04-10T08:59:20;30.30;45.40
38784;DHT22;24531;45.502;12.238;2023-04-10T09:01:46;30.40;45.10
38784;DHT22;24531;45.502;12.238;2023-04-10T09:04:12;30.80;44.60
38784;DHT22;24531;45.502;12.238;2023-04-10T09:06:38;31.10;44.00
38784;DHT22;24531;45.502;12.238;2023-04-10T09:09:05;31.20;44.00
38784;DHT22;24531;45.502;12.238;2023-04-10T09:14:31;31.50;42.80
38784;DHT22;24531;45.502;12.238;2023-04-10T09:17:29;31.80;42.90
38784;DHT22;24531;45.502;12.238;2023-04-10T09:19:55;32.40;41.90
38784;DHT22;24531;45.502;12.238;2023-04-10T09:22:31;32.60;41.80
38784;DHT22;24531;45.502;12.238;2023-04-10T09:24:58;33.00;41.10
38784;DHT22;24531;45.502;12.238;2023-04-10T09:27:33;33.30;41.00
38784;DHT22;24531;45.502;12.238;2023-04-10T09:30:04;33.60;40.30
38784;DHT22;24531;45.502;12.238;2023-04-10T09:32:36;33.90;40.20
38784;DHT22;24531;45.502;12.238;2023-04-10T09:35:02;33.80;39.80
38784;DHT22;24531;45.502;12.238;2023-04-10T09:37:33;33.80;39.90
38784;DHT22;24531;45.502;12.238;2023-04-10T09:39:59;33.80;39.40
38784;DHT22;24531;45.502;12.238;2023-04-10T09:42:36;33.90;39.70
38784;DHT22;24531;45.502;12.238;2023-04-10T09:45:02;34.30;38.90
38784;DHT22;24531;45.502;12.238;2023-04-10T09:47:29;34.80;38.70
38784;DHT22;24531;45.502;12.238;2023-04-10T09:49:58;34.80;38.00
38784;DHT22;24531;45.502;12.238;2023-04-10T09:52:25;34.90;37.70
38784;DHT22;24531;45.502;12.238;2023-04-10T09:54:56;34.90;37.40
38784;DHT22;24531;45.502;12.238;2023-04-10T09:57:23;35.00;37.10
38784;DHT22;24531;45.502;12.238;2023-04-10T09:59:52;35.30;37.20
38784;DHT22;24531;45.502;12.238;2023-04-10T10:02:19;35.80;36.90
38784;DHT22;24531;45.502;12.238;2023-04-10T10:04:46;36.10;36.40
38784;DHT22;24531;45.502;12.238;2023-04-10T10:07:20;35.90;36.00
38784;DHT22;24531;45.502;12.238;2023-04-10T10:09:47;35.60;36.10
38784;DHT22;24531;45.502;12.238;2023-04-10T10:12:21;35.60;36.10
38784;DHT22;24531;45.502;12.238;2023-04-10T10:15:13;35.30;35.10
38784;DHT22;24531;45.502;12.238;2023-04-10T10:18:08;34.30;34.60
38784;DHT22;24531;45.502;12.238;2023-04-10T10:20:38;33.00;35.40
38784;DHT22;24531;45.502;12.238;2023-04-10T10:23:06;31.70;37.00
38784;DHT22;24531;45.502;12.238;2023-04-10T10:25:34;30.60;37.90
38784;DHT22;24531;45.502;12.238;2023-04-10T10:28:03;29.60;38.30
38784;DHT22;24531;45.502;12.238;2023-04-10T10:30:33;28.80;39.10
38784;DHT22;24531;45.502;12.238;2023-04-10T10:33:00;28.30;39.90
38784;DHT22;24531;45.502;12.238;2023-04-10T10:35:30;27.80;40.00
38784;DHT22;24531;45.502;12.238;2023-04-10T10:37:58;27.30;40.00
38784;DHT22;24531;45.502;12.238;2023-04-10T10:46:08;26.00;41.20
38784;DHT22;24531;45.502;12.238;2023-04-10T10:48:35;25.60;41.60
38784;DHT22;24531;45.502;12.238;2023-04-10T10:51:01;25.40;42.00
38784;DHT22;24531;45.502;12.238;2023-04-10T10:53:42;25.10;42.10
38784;DHT22;24531;45.502;12.238;2023-04-10T10:58:50;24.50;42.20
38784;DHT22;24531;45.502;12.238;2023-04-10T11:01:17;24.40;42.60
38784;DHT22;24531;45.502;12.238;2023-04-10T11:03:43;24.40;42.90
38784;DHT22;24531;45.502;12.238;2023-04-10T11:06:11;24.40;42.90
38784;DHT22;24531;45.502;12.238;2023-04-10T11:08:44;24.30;42.90
38784;DHT22;24531;45.502;12.238;2023-04-10T11:19:04;23.50;43.30
38784;DHT22;24531;45.502;12.238;2023-04-10T11:21:30;23.50;43.70
38784;DHT22;24531;45.502;12.238;2023-04-10T11:31:30;23.40;44.30
38784;DHT22;24531;45.502;12.238;2023-04-10T11:36:24;23.30;44.30
38784;DHT22;24531;45.502;12.238;2023-04-10T11:39:18;23.20;44.20
38784;DHT22;24531;45.502;12.238;2023-04-10T11:41:45;23.20;44.40
38784;DHT22;24531;45.502;12.238;2023-04-10T11:44:13;23.20;44.30
38784;DHT22;24531;45.502;12.238;2023-04-10T11:46:43;23.20;44.60
38784;DHT22;24531;45.502;12.238;2023-04-10T11:49:11;23.20;44.40
38784;DHT22;24531;45.502;12.238;2023-04-10T11:51:38;23.20;44.60
38784;DHT22;24531;45.502;12.238;2023-04-10T11:56:34;23.00;44.80
38784;DHT22;24531;45.502;12.238;2023-04-10T11:59:00;23.00;44.90
38784;DHT22;24531;45.502;12.238;2023-04-10T12:01:32;23.00;44.90
38784;DHT22;24531;45.502;12.238;2023-04-10T12:03:58;22.90;44.60
38784;DHT22;24531;45.502;12.238;2023-04-10T12:06:24;22.70;44.80
38784;DHT22;24531;45.502;12.238;2023-04-10T12:08:52;22.70;44.90
38784;DHT22;24531;45.502;12.238;2023-04-10T12:11:19;22.70;44.80
38784;DHT22;24531;45.502;12.238;2023-04-10T12:13:46;22.70;45.40
38784;DHT22;24531;45.502;12.238;2023-04-10T12:16:12;22.70;44.70
38784;DHT22;24531;45.502;12.238;2023-04-10T12:18:38;22.60;44.60
38784;DHT22;24531;45.502;12.238;2023-04-10T12:21:04;22.60;44.60
38784;DHT22;24531;45.502;12.238;2023-04-10T12:23:30;22.50;44.60
38784;DHT22;24531;45.502;12.238;2023-04-10T12:26:16;22.50;44.70
38784;DHT22;24531;45.502;12.238;2023-04-10T12:28:50;22.40;44.80
38784;DHT22;24531;45.502;12.238;2023-04-10T12:31:16;22.30;44.90
38784;DHT22;24531;45.502;12.238;2023-04-10T12:33:45;22.30;45.20
38784;DHT22;24531;45.502;12.238;2023-04-10T12:36:21;22.20;45.30
38784;DHT22;24531;45.502;12.238;2023-04-10T12:38:48;22.20;45.30
38784;DHT22;24531;45.502;12.238;2023-04-10T12:41:20;22.00;45.30
38784;DHT22;24531;45.502;12.238;2023-04-10T12:43:47;21.90;46.20
38784;DHT22;24531;45.502;12.238;2023-04-10T12:46:26;21.80;45.80
38784;DHT22;24531;45.502;12.238;2023-04-10T12:48:52;21.90;45.80
38784;DHT22;24531;45.502;12.238;2023-04-10T12:51:18;22.00;46.20
38784;DHT22;24531;45.502;12.238;2023-04-10T12:53:45;22.10;45.80
38784;DHT22;24531;45.502;12.238;2023-04-10T12:56:11;22.10;45.70
38784;DHT22;24531;45.502;12.238;2023-04-10T12:58:38;22.00;45.50
38784;DHT22;24531;45.502;12.238;2023-04-10T13:01:05;22.10;45.80
38784;DHT22;24531;45.502;12.238;2023-04-10T13:03:37;22.10;45.70
38784;DHT22;24531;45.502;12.238;2023-04-10T13:06:07;22.10;45.60
38784;DHT22;24531;45.502;12.238;2023-04-10T13:08:33;22.10;45.60
38784;DHT22;24531;45.502;12.238;2023-04-10T13:10:59;22.20;45.70
38784;DHT22;24531;45.502;12.238;2023-04-10T13:13:28;22.10;45.60
38784;DHT22;24531;45.502;12.238;2023-04-10T13:15:55;22.10;45.70
38784;DHT22;24531;45.502;12.238;2023-04-10T13:18:21;22.10;45.50
38784;DHT22;24531;45.502;12.238;2023-04-10T13:20:46;22.10;45.60
38784;DHT22;24531;45.502;12.238;2023-04-10T13:23:12;22.10;45.60
38784;DHT22;24531;45.502;12.238;2023-04-10T13:25:38;22.10;45.70
38784;DHT22;24531;45.502;12.238;2023-04-10T13:28:05;22.30;45.80
38784;DHT22;24531;45.502;12.238;2023-04-10T13:30:36;22.30;45.60
38784;DHT22;24531;45.502;12.238;2023-04-10T13:33:02;22.40;45.50
38784;DHT22;24531;45.502;12.238;2023-04-10T13:35:27;22.40;45.50
38784;DHT22;24531;45.502;12.238;2023-04-10T13:37:53;22.40;45.50
38784;DHT22;24531;45.502;12.238;2023-04-10T13:40:19;22.40;45.40
38784;DHT22;24531;45.502;12.238;2023-04-10T13:42:49;22.30;45.60
38784;DHT22;24531;45.502;12.238;2023-04-10T13:45:15;22.20;45.60
38784;DHT22;24531;45.502;12.238;2023-04-10T13:47:41;22.10;45.80
38784;DHT22;24531;45.502;12.238;2023-04-10T13:50:07;22.20;46.00
38784;DHT22;24531;45.502;12.238;2023-04-10T13:52:33;22.30;46.00
38784;DHT22;24531;45.502;12.238;2023-04-10T13:54:59;22.30;46.00
38784;DHT22;24531;45.502;12.238;2023-04-10T13:57:25;22.40;45.90
38784;DHT22;24531;45.502;12.238;2023-04-10T13:59:52;22.40;45.90
38784;DHT22;24531;45.502;12.238;2023-04-10T14:02:17;22.40;45.90
38784;DHT22;24531;45.502;12.238;2023-04-10T14:04:43;22.50;46.00
38784;DHT22;24531;45.502;12.238;2023-04-10T14:07:10;22.60;45.90
38784;DHT22;24531;45.502;12.238;2023-04-10T14:09:36;22.50;45.90
38784;DHT22;24531;45.502;12.238;2023-04-10T14:12:02;22.50;45.90
38784;DHT22;24531;45.502;12.238;2023-04-10T14:14:28;22.30;45.80
38784;DHT22;24531;45.502;12.238;2023-04-10T14:16:54;22.30;45.90
38784;DHT22;24531;45.502;12.238;2023-04-10T14:19:19;22.20;46.00
38784;DHT22;24531;45.502;12.238;2023-04-10T14:21:45;22.20;46.00
38784;DHT22;24531;45.502;12.238;2023-04-10T14:24:11;22.30;46.00
38784;DHT22;24531;45.502;12.238;2023-04-10T14:26:37;22.30;46.20
38784;DHT22;24531;45.502;12.238;2023-04-10T14:29:02;22.50;46.20
38784;DHT22;24531;45.502;12.238;2023-04-10T14:31:28;22.50;46.20
38784;DHT22;24531;45.502;12.238;2023-04-10T14:33:53;22.60;46.20
38784;DHT22;24531;45.502;12.238;2023-04-10T14:36:19;22.70;46.10
38784;DHT22;24531;45.502;12.238;2023-04-10T14:38:44;22.70;46.10
38784;DHT22;24531;45.502;12.238;2023-04-10T14:41:10;22.60;46.20
38784;DHT22;24531;45.502;12.238;2023-04-10T14:43:36;22.60;46.50
38784;DHT22;24531;45.502;12.238;2023-04-10T14:46:02;22.60;46.40
38784;DHT22;24531;45.502;12.238;2023-04-10T14:48:28;22.60;46.40
38784;DHT22;24531;45.502;12.238;2023-04-10T14:50:53;22.70;46.30
38784;DHT22;24531;45.502;12.238;2023-04-10T14:53:21;22.80;46.10
38784;DHT22;24531;45.502;12.238;2023-04-10T14:55:47;23.00;46.00
38784;DHT22;24531;45.502;12.238;2023-04-10T14:58:13;23.00;45.80
38784;DHT22;24531;45.502;12.238;2023-04-10T15:00:39;23.10;45.60
38784;DHT22;24531;45.502;12.238;2023-04-10T15:03:04;23.10;45.40
38784;DHT22;24531;45.502;12.238;2023-04-10T15:05:30;23.00;45.40
38784;DHT22;24531;45.502;12.238;2023-04-10T15:07:56;23.00;45.50
38784;DHT22;24531;45.502;12.238;2023-04-10T15:10:22;22.90;45.70
38784;DHT22;24531;45.502;12.238;2023-04-10T15:12:47;23.00;45.90
38784;DHT22;24531;45.502;12.238;2023-04-10T15:15:13;23.00;45.90
38784;DHT22;24531;45.502;12.238;2023-04-10T15:17:39;23.00;45.80
38784;DHT22;24531;45.502;12.238;2023-04-10T15:20:05;23.00;46.00
38784;DHT22;24531;45.502;12.238;2023-04-10T15:22:31;23.00;45.90
38784;DHT22;24531;45.502;12.238;2023-04-10T15:24:57;22.90;45.90
38784;DHT22;24531;45.502;12.238;2023-04-10T15:27:22;22.70;45.70
38784;DHT22;24531;45.502;12.238;2023-04-10T15:29:49;22.60;45.70
38784;DHT22;24531;45.502;12.238;2023-04-10T15:32:14;22.60;46.00
38784;DHT22;24531;45.502;12.238;2023-04-10T15:34:40;22.70;46.10
38784;DHT22;24531;45.502;12.238;2023-04-10T15:37:05;22.80;46.30
38784;DHT22;24531;45.502;12.238;2023-04-10T15:39:31;22.80;46.10
38784;DHT22;24531;45.502;12.238;2023-04-10T15:41:57;22.90;46.00
38784;DHT22;24531;45.502;12.238;2023-04-10T15:44:27;22.70;45.50
38784;DHT22;24531;45.502;12.238;2023-04-10T15:46:52;22.50;45.60
38784;DHT22;24531;45.502;12.238;2023-04-10T15:49:18;22.30;46.00
38784;DHT22;24531;45.502;12.238;2023-04-10T15:51:45;22.20;46.50
38784;DHT22;24531;45.502;12.238;2023-04-10T15:54:10;22.00;46.80
38784;DHT22;24531;45.502;12.238;2023-04-10T15:56:36;21.80;47.00
38784;DHT22;24531;45.502;12.238;2023-04-10T15:59:02;21.60;47.20
38784;DHT22;24531;45.502;12.238;2023-04-10T16:01:27;21.50;47.50